createdAt,value
2022-09-30T00:00:56.174Z,12.40
2022-09-30T00:03:24.086Z,11.15
2022-09-30T00:06:07.806Z,13.82
2022-09-30T00:08:36.391Z,13.35
2022-09-30T00:11:16.404Z,12.60
2022-09-30T00:13:44.347Z,15.35
2022-09-30T00:16:12.675Z,13.25
2022-09-30T00:18:40.330Z,14.38
2022-09-30T00:21:08.205Z,11.68
2022-09-30T00:23:37.824Z,14.00
2022-09-30T00:26:07.886Z,17.27
2022-09-30T00:28:35.622Z,12.98
2022-09-30T00:31:07.905Z,12.70
2022-09-30T00:33:35.632Z,15.65
2022-09-30T00:36:03.602Z,14.40
2022-09-30T00:38:30.338Z,12.30
2022-09-30T00:40:59.603Z,11.50
2022-09-30T00:43:58.496Z,11.77
2022-09-30T00:46:31.338Z,10.43
2022-09-30T00:49:03.294Z,11.43
2022-09-30T00:51:37.395Z,12.50
2022-09-30T00:54:10.049Z,15.32
2022-09-30T00:56:42.277Z,15.77
2022-09-30T00:59:17.818Z,17.13
2022-09-30T01:01:44.857Z,14.23
2022-09-30T01:04:38.289Z,14.82
2022-09-30T01:07:08.332Z,12.35
2022-09-30T01:09:40.543Z,14.48
2022-09-30T01:12:12.024Z,16.05
2022-09-30T01:14:40.743Z,17.17
2022-09-30T01:17:36.599Z,18.60
2022-09-30T01:20:30.284Z,14.18
2022-09-30T01:23:16.743Z,15.40
2022-09-30T01:26:02.066Z,15.98
2022-09-30T01:29:09.986Z,14.00
2022-09-30T01:31:42.254Z,19.25
2022-09-30T01:35:04.713Z,17.75
2022-09-30T01:38:01.652Z,14.55
2022-09-30T01:40:50.249Z,12.07
2022-09-30T01:43:37.668Z,10.90
2022-09-30T01:46:17.890Z,10.25
2022-09-30T01:49:00.426Z,10.88
2022-09-30T01:51:41.796Z,12.23
2022-09-30T01:54:18.503Z,11.95
2022-09-30T01:56:50.590Z,12.65
2022-09-30T02:00:06.039Z,13.02
2022-09-30T02:03:04.656Z,13.73
2022-09-30T02:05:45.597Z,10.73
2022-09-30T02:08:28.880Z,10.90
2022-09-30T02:11:13.406Z,11.18
2022-09-30T02:13:52.470Z,12.30
2022-09-30T02:16:32.422Z,11.88
2022-09-30T02:19:09.050Z,13.80
2022-09-30T02:21:40.450Z,12.13
2022-09-30T02:24:11.787Z,15.13
2022-09-30T02:26:42.648Z,10.60
2022-09-30T02:29:16.525Z,13.60
2022-09-30T02:31:47.055Z,12.68
2022-09-30T02:34:16.549Z,14.65
2022-09-30T02:36:54.887Z,17.80
2022-09-30T02:39:28.451Z,17.70
2022-09-30T02:42:02.386Z,16.58
2022-09-30T02:44:30.029Z,11.70
2022-09-30T02:47:11.186Z,14.38
2022-09-30T02:49:56.214Z,11.70
2022-09-30T02:52:43.928Z,13.35
2022-09-30T02:55:45.386Z,13.85
2022-09-30T02:58:15.426Z,15.73
2022-09-30T03:00:42.442Z,12.88
2022-09-30T03:03:18.706Z,13.23
2022-09-30T03:05:45.687Z,12.73
2022-09-30T03:08:12.485Z,13.07
2022-09-30T03:13:29.184Z,17.05
2022-09-30T03:16:14.186Z,10.77
2022-09-30T03:19:05.833Z,11.93
2022-09-30T03:22:19.127Z,15.18
2022-09-30T03:24:49.160Z,13.93
2022-09-30T03:27:42.881Z,12.45
2022-09-30T03:30:24.249Z,13.27
2022-09-30T03:33:12.782Z,18.30
2022-09-30T03:38:42.910Z,14.70
2022-09-30T03:41:36.918Z,15.93
2022-09-30T03:44:23.352Z,19.25
2022-09-30T03:46:54.849Z,18.98
2022-09-30T03:49:30.009Z,17.02
2022-09-30T03:51:58.808Z,17.85
2022-09-30T03:54:25.859Z,15.05
2022-09-30T03:56:52.499Z,21.80
2022-09-30T03:59:28.368Z,18.90
2022-09-30T04:01:56.907Z,18.63
2022-09-30T04:04:23.699Z,15.23
2022-09-30T04:06:50.426Z,15.23
2022-09-30T04:09:17.191Z,13.05
2022-09-30T04:14:10.576Z,12.80
2022-09-30T04:16:37.306Z,9.80
2022-09-30T04:21:30.892Z,10.75
2022-09-30T04:23:57.590Z,10.80
2022-09-30T04:26:24.268Z,12.43
2022-09-30T04:33:47.914Z,10.80
2022-09-30T04:36:14.645Z,8.40
2022-09-30T04:41:09.778Z,11.70
2022-09-30T04:43:36.850Z,11.13
2022-09-30T04:46:03.618Z,10.88
2022-09-30T04:50:59.965Z,14.73
2022-09-30T04:53:26.987Z,14.65
2022-09-30T04:55:59.929Z,13.35
2022-09-30T04:58:27.786Z,14.55
2022-09-30T05:01:05.603Z,9.90
2022-09-30T05:03:32.711Z,10.65
2022-09-30T05:05:59.634Z,10.73
2022-09-30T05:08:26.392Z,8.52
2022-09-30T05:11:01.479Z,8.50
2022-09-30T05:13:33.428Z,10.15
2022-09-30T05:16:01.034Z,13.10
2022-09-30T05:18:28.573Z,14.02
2022-09-30T05:20:57.905Z,11.50
2022-09-30T05:23:26.732Z,10.23
2022-09-30T05:25:53.896Z,8.55
2022-09-30T05:28:20.842Z,11.40
2022-09-30T05:30:49.799Z,38.63
2022-09-30T05:33:16.789Z,9.90
2022-09-30T05:35:43.732Z,6.10
2022-09-30T05:38:11.166Z,5.57
2022-09-30T05:40:41.834Z,7.38
2022-09-30T05:43:09.826Z,7.40
2022-09-30T05:45:38.309Z,6.72
2022-09-30T05:48:05.087Z,13.50
2022-09-30T05:50:32.004Z,9.18
2022-09-30T05:52:58.737Z,10.13
2022-09-30T05:55:25.500Z,9.50
2022-09-30T06:00:20.231Z,12.27
2022-09-30T06:02:51.572Z,12.52
2022-09-30T06:05:18.731Z,14.20
2022-09-30T06:07:45.373Z,18.05
2022-09-30T06:10:12.306Z,10.98
2022-09-30T06:12:39.701Z,10.52
2022-09-30T06:15:07.312Z,15.13
2022-09-30T06:17:34.617Z,13.93
2022-09-30T06:20:04.413Z,17.52
2022-09-30T06:22:35.831Z,13.32
2022-09-30T06:25:06.886Z,14.52
2022-09-30T06:27:34.434Z,13.13
2022-09-30T06:30:01.098Z,16.85
2022-09-30T06:32:27.804Z,17.73
2022-09-30T06:34:55.663Z,19.83
2022-09-30T06:37:23.576Z,15.73
2022-09-30T06:39:50.837Z,15.80
2022-09-30T06:42:19.004Z,20.73
2022-09-30T06:44:52.737Z,20.85
2022-09-30T06:47:25.614Z,15.57
2022-09-30T06:49:58.644Z,14.35
2022-09-30T06:52:26.724Z,17.25
2022-09-30T06:54:56.815Z,17.83
2022-09-30T06:57:27.732Z,18.00
2022-09-30T06:59:54.680Z,20.08
2022-09-30T07:02:22.428Z,16.67
2022-09-30T07:04:50.331Z,18.48
2022-09-30T07:07:17.212Z,18.15
2022-09-30T07:09:44.153Z,22.05
2022-09-30T07:12:11.389Z,19.50
2022-09-30T07:14:38.456Z,15.98
2022-09-30T07:17:08.805Z,22.00
2022-09-30T07:19:36.208Z,22.10
2022-09-30T07:22:21.810Z,21.67
2022-09-30T07:24:48.683Z,21.83
2022-09-30T07:27:15.879Z,22.27
2022-09-30T07:30:07.780Z,20.73
2022-09-30T07:32:31.665Z,23.48
2022-09-30T07:34:58.517Z,20.30
2022-09-30T07:39:53.822Z,22.52
2022-09-30T07:42:23.764Z,23.13
2022-09-30T07:44:51.787Z,29.58
2022-09-30T07:47:19.430Z,27.00
2022-09-30T07:49:47.180Z,26.77
2022-09-30T07:52:14.995Z,26.70
2022-09-30T07:54:46.651Z,24.20
2022-09-30T07:57:16.956Z,24.63
2022-09-30T07:59:44.350Z,18.77
2022-09-30T08:02:16.674Z,24.00
2022-09-30T08:04:44.648Z,17.10
2022-09-30T08:07:14.150Z,16.58
2022-09-30T08:09:41.385Z,17.05
2022-09-30T08:12:08.641Z,16.40
2022-09-30T08:14:35.819Z,15.13
2022-09-30T08:17:02.997Z,16.38
2022-09-30T08:19:31.174Z,14.38
2022-09-30T08:21:59.166Z,14.88
2022-09-30T08:24:27.442Z,13.52
2022-09-30T08:26:54.733Z,18.70
2022-09-30T08:29:49.872Z,13.98
2022-09-30T08:32:09.637Z,11.60
2022-09-30T08:34:36.614Z,10.80
2022-09-30T08:37:09.133Z,10.57
2022-09-30T08:39:37.938Z,11.15
2022-09-30T08:42:35.452Z,9.95
2022-09-30T08:45:19.938Z,10.82
2022-09-30T08:48:17.590Z,12.40
2022-09-30T08:51:02.101Z,11.70
2022-09-30T08:53:34.788Z,12.93
2022-09-30T08:56:03.565Z,12.63
2022-09-30T08:58:38.838Z,12.88
2022-09-30T09:01:33.376Z,14.65
2022-09-30T09:04:02.221Z,12.93
2022-09-30T09:06:52.791Z,13.27
2022-09-30T09:09:43.607Z,9.88
2022-09-30T09:12:19.591Z,8.50
2022-09-30T09:14:58.700Z,8.65
2022-09-30T09:17:50.293Z,9.45
2022-09-30T09:20:38.601Z,8.88
2022-09-30T09:23:11.763Z,8.95
2022-09-30T09:25:39.698Z,7.85
2022-09-30T09:28:24.170Z,10.23
2022-09-30T09:30:58.053Z,10.13
2022-09-30T09:33:35.297Z,8.05
2022-09-30T09:38:49.773Z,15.90
2022-09-30T09:41:54.693Z,9.50
2022-09-30T09:44:44.198Z,8.25
2022-09-30T09:47:17.284Z,6.95
2022-09-30T09:50:04.314Z,8.40
2022-09-30T09:52:47.705Z,8.10
2022-09-30T09:55:19.333Z,7.63
2022-09-30T09:57:47.365Z,7.30
2022-09-30T10:00:46.165Z,7.00
2022-09-30T10:03:22.317Z,7.90
2022-09-30T10:06:03.127Z,5.40
2022-09-30T10:08:33.341Z,6.05
2022-09-30T10:11:04.584Z,5.38
2022-09-30T10:13:33.348Z,5.45
2022-09-30T10:16:02.149Z,7.18
2022-09-30T10:18:33.808Z,4.70
2022-09-30T10:21:19.231Z,5.80
2022-09-30T10:23:46.128Z,5.00
2022-09-30T10:28:54.510Z,7.47
2022-09-30T10:31:38.116Z,5.93
2022-09-30T10:34:26.021Z,9.48
2022-09-30T10:36:54.439Z,8.90
2022-09-30T10:39:30.272Z,7.53
2022-09-30T10:42:08.420Z,7.13
2022-09-30T10:44:45.867Z,6.90
2022-09-30T10:50:00.387Z,6.65
2022-09-30T10:52:34.861Z,5.22
2022-09-30T10:55:25.761Z,7.43
2022-09-30T10:57:54.776Z,8.75
2022-09-30T11:00:25.366Z,7.75
2022-09-30T11:03:11.090Z,9.35
2022-09-30T11:05:44.391Z,9.00
2022-09-30T11:08:17.426Z,7.30
2022-09-30T11:11:11.334Z,9.85
2022-09-30T11:13:55.586Z,7.50
2022-09-30T11:16:34.724Z,7.57
2022-09-30T11:19:15.166Z,7.60
2022-09-30T11:21:46.318Z,7.05
2022-09-30T11:24:32.328Z,8.35
2022-09-30T11:27:26.109Z,8.27
2022-09-30T11:30:23.140Z,7.68
2022-09-30T11:32:59.341Z,7.72
2022-09-30T11:36:00.270Z,7.30
2022-09-30T11:38:48.719Z,7.15
2022-09-30T11:41:33.391Z,7.72
2022-09-30T11:44:17.972Z,6.30
2022-09-30T11:47:00.238Z,7.15
2022-09-30T11:49:40.332Z,6.03
2022-09-30T11:52:32.415Z,6.40
2022-09-30T11:55:55.230Z,6.57
2022-09-30T11:58:41.107Z,5.25
2022-09-30T12:01:18.509Z,10.73
2022-09-30T12:03:56.151Z,21.30
2022-09-30T12:06:33.488Z,16.10
2022-09-30T12:12:03.101Z,16.27
2022-09-30T12:14:39.097Z,8.70
2022-09-30T12:17:18.462Z,6.20
2022-09-30T12:19:49.544Z,6.40
2022-09-30T12:22:30.321Z,5.70
2022-09-30T12:24:57.148Z,8.73
2022-09-30T17:20:17.280Z,6.68
2022-09-30T17:22:45.573Z,11.90
2022-09-30T17:25:12.747Z,12.85
2022-09-30T17:27:39.585Z,11.25
2022-09-30T17:32:36.201Z,13.45
2022-09-30T17:35:06.253Z,11.45
2022-09-30T17:37:33.151Z,10.70
2022-09-30T17:40:00.299Z,8.20
2022-09-30T17:42:45.693Z,8.07
2022-09-30T17:45:12.706Z,12.10
2022-09-30T17:50:09.026Z,12.27
2022-09-30T17:52:35.985Z,18.17
2022-09-30T17:55:02.866Z,16.40
2022-09-30T18:00:06.278Z,14.68
2022-09-30T18:02:33.189Z,12.57
2022-09-30T18:04:59.996Z,14.85
2022-09-30T18:07:27.674Z,16.42
2022-09-30T18:09:54.573Z,15.45
2022-09-30T18:12:21.468Z,13.77
2022-09-30T18:17:15.033Z,13.98
2022-09-30T18:22:08.904Z,14.10
2022-09-30T18:27:22.652Z,19.20
2022-09-30T18:29:49.602Z,17.20
2022-09-30T18:32:20.135Z,23.60
2022-09-30T18:34:47.236Z,23.17
2022-09-30T18:37:14.187Z,18.70
2022-09-30T18:39:41.243Z,19.90
2022-09-30T18:42:08.036Z,22.50
2022-09-30T18:44:37.468Z,20.90
2022-09-30T18:47:05.936Z,28.88
2022-09-30T18:49:32.890Z,23.35
2022-09-30T18:51:59.877Z,22.85
2022-09-30T18:54:26.682Z,27.23
2022-09-30T18:59:23.310Z,26.23
2022-09-30T19:01:51.309Z,32.25
2022-09-30T19:04:18.292Z,22.67
2022-09-30T19:06:47.600Z,26.83
2022-09-30T19:09:16.360Z,23.20
2022-09-30T19:11:44.825Z,28.33
2022-09-30T19:14:14.292Z,26.50
2022-09-30T19:16:41.908Z,28.90
2022-09-30T19:19:10.487Z,26.88
2022-09-30T19:21:38.481Z,27.33
2022-09-30T19:24:07.066Z,25.98
2022-09-30T19:26:36.510Z,26.20
2022-09-30T19:29:05.398Z,21.08
2022-09-30T19:31:34.045Z,19.08
2022-09-30T19:34:02.012Z,21.98
2022-09-30T19:36:31.479Z,16.60
2022-09-30T19:39:10.082Z,21.40
2022-09-30T19:41:38.006Z,25.08
2022-09-30T19:44:04.802Z,16.25
2022-09-30T19:48:58.639Z,21.60
2022-09-30T19:51:28.065Z,23.50
2022-09-30T19:54:04.944Z,25.92
2022-09-30T19:56:35.335Z,25.45
2022-09-30T19:59:02.524Z,23.25
2022-09-30T20:01:30.970Z,25.02
2022-09-30T20:04:04.770Z,22.02
2022-09-30T20:06:32.442Z,20.05
2022-09-30T20:09:00.956Z,18.35
2022-09-30T20:11:33.414Z,14.52
2022-09-30T20:14:20.345Z,17.83
2022-09-30T20:16:48.432Z,24.67
2022-09-30T20:19:19.357Z,23.52
2022-09-30T20:21:47.351Z,23.77
2022-09-30T20:24:16.029Z,17.95
2022-09-30T20:26:44.935Z,17.38
2022-09-30T20:29:12.204Z,15.13
2022-09-30T20:31:41.734Z,21.90
2022-09-30T20:34:11.929Z,18.85
2022-09-30T20:36:40.341Z,17.02
2022-09-30T20:39:07.963Z,15.15
2022-09-30T20:41:37.685Z,19.83
2022-09-30T20:44:12.095Z,20.45
2022-09-30T20:46:41.624Z,15.45
2022-09-30T20:49:09.368Z,14.43
2022-09-30T20:51:36.374Z,13.98
2022-09-30T20:54:03.744Z,18.60
2022-09-30T20:56:44.460Z,19.77
2022-09-30T20:59:17.580Z,23.38
2022-09-30T21:04:11.602Z,22.60
2022-09-30T21:06:38.398Z,21.13
2022-09-30T21:09:05.495Z,19.50
2022-09-30T21:11:33.600Z,18.73
2022-09-30T21:14:00.732Z,21.00
2022-09-30T21:18:56.535Z,19.30
2022-09-30T21:21:24.828Z,21.38
2022-09-30T21:23:55.460Z,25.45
2022-09-30T21:26:22.329Z,27.42
2022-09-30T21:31:28.685Z,22.38
2022-09-30T21:33:59.366Z,24.10
2022-09-30T21:36:28.217Z,23.35
2022-09-30T21:39:01.131Z,19.20
2022-09-30T21:41:28.512Z,18.17
2022-09-30T21:43:56.075Z,13.60
2022-09-30T21:46:23.325Z,16.50
2022-09-30T21:48:50.491Z,16.45
2022-09-30T21:51:17.934Z,15.43
2022-09-30T21:53:46.812Z,18.42
2022-09-30T21:56:13.642Z,18.65
2022-09-30T22:01:07.858Z,14.90
2022-09-30T22:03:37.832Z,12.23
2022-09-30T22:06:07.519Z,18.38
2022-09-30T22:08:40.812Z,18.15
2022-09-30T22:11:14.324Z,15.85
2022-09-30T22:13:46.134Z,20.13
2022-09-30T22:16:19.870Z,21.20
2022-09-30T22:18:46.962Z,21.17
2022-09-30T22:21:14.927Z,16.40
2022-09-30T22:23:43.106Z,17.77
2022-09-30T22:26:12.065Z,18.00
2022-09-30T22:28:39.927Z,14.57
2022-09-30T22:31:15.907Z,14.88
2022-09-30T22:34:01.658Z,11.88
2022-09-30T22:36:47.393Z,13.80
2022-09-30T22:39:14.628Z,11.98
2022-09-30T22:41:42.593Z,10.02
2022-09-30T22:44:09.604Z,11.48
2022-09-30T22:46:37.812Z,9.68
2022-09-30T22:49:05.845Z,10.20
2022-09-30T22:51:33.017Z,18.92
2022-09-30T22:54:01.566Z,17.38
2022-09-30T22:56:28.896Z,14.00
2022-09-30T22:58:56.186Z,13.63
2022-09-30T23:01:23.020Z,12.32
2022-09-30T23:06:24.542Z,13.52
2022-09-30T23:08:54.412Z,15.70
2022-09-30T23:11:23.207Z,14.13
2022-09-30T23:13:52.565Z,20.35
2022-09-30T23:16:22.125Z,15.70
2022-09-30T23:18:49.014Z,17.45
2022-09-30T23:23:46.451Z,15.52
2022-09-30T23:26:18.749Z,20.08
2022-09-30T23:28:46.697Z,14.88
2022-09-30T23:31:16.604Z,18.67
2022-09-30T23:33:51.993Z,23.35
2022-09-30T23:36:21.741Z,17.33
2022-09-30T23:38:48.588Z,20.17
2022-09-30T23:43:48.241Z,23.90
2022-09-30T23:46:17.017Z,21.23
2022-09-30T23:48:45.789Z,24.42
2022-09-30T23:51:14.017Z,22.73
2022-09-30T23:53:42.394Z,17.02
2022-09-30T23:56:16.982Z,16.30
2022-09-30T23:58:45.118Z,13.35
